sensor_id;sensor_type;location;lat;lon;timestamp;pressure;altitude;pressure_sealevel;temperature;humidity
24422;BME280;12600;53.326;-6.298;2023-10-31T00:01:36;98969.00;;;11.40;99.74
24422;BME280;12600;53.326;-6.298;2023-10-31T00:04:05;98969.34;;;11.38;99.68
24422;BME280;12600;53.326;-6.298;2023-10-31T00:06:34;98959.38;;;11.30;99.64
24422;BME280;12600;53.326;-6.298;2023-10-31T00:09:04;98962.56;;;11.32;99.84
24422;BME280;12600;53.326;-6.298;2023-10-31T00:11:33;98965.13;;;11.25;99.47
24422;BME280;12600;53.326;-6.298;2023-10-31T00:14:05;98974.13;;;11.26;99.40
24422;BME280;12600;53.326;-6.298;2023-10-31T00:16:54;98943.72;;;11.11;99.01
24422;BME280;12600;53.326;-6.298;2023-10-31T00:19:23;98951.91;;;11.11;99.12
24422;BME280;12600;53.326;-6.298;2023-10-31T00:21:53;98971.66;;;11.20;99.10
24422;BME280;12600;53.326;-6.298;2023-10-31T00:24:22;98980.22;;;11.19;98.92
24422;BME280;12600;53.326;-6.298;2023-10-31T00:26:51;98978.63;;;11.18;99.14
24422;BME280;12600;53.326;-6.298;2023-10-31T00:29:22;98978.28;;;11.19;99.47
24422;BME280;12600;53.326;-6.298;2023-10-31T00:31:51;98971.59;;;11.17;99.28
24422;BME280;12600;53.326;-6.298;2023-10-31T00:34:21;98986.56;;;11.23;99.62
24422;BME280;12600;53.326;-6.298;2023-10-31T00:36:50;98980.84;;;11.12;100.00
24422;BME280;12600;53.326;-6.298;2023-10-31T00:39:22;98985.25;;;11.17;100.00
24422;BME280;12600;53.326;-6.298;2023-10-31T00:41:52;98984.28;;;11.25;99.99
24422;BME280;12600;53.326;-6.298;2023-10-31T00:44:22;98978.03;;;11.25;99.89
24422;BME280;12600;53.326;-6.298;2023-10-31T00:46:52;98954.22;;;11.09;100.00
24422;BME280;12600;53.326;-6.298;2023-10-31T00:49:21;98985.94;;;11.30;99.76
24422;BME280;12600;53.326;-6.298;2023-10-31T00:51:50;98973.78;;;11.27;99.59
24422;BME280;12600;53.326;-6.298;2023-10-31T00:54:20;98977.31;;;11.28;99.03
24422;BME280;12600;53.326;-6.298;2023-10-31T00:56:49;98981.91;;;11.24;99.18
24422;BME280;12600;53.326;-6.298;2023-10-31T00:59:18;98979.84;;;11.20;98.89
24422;BME280;12600;53.326;-6.298;2023-10-31T01:01:49;98987.19;;;11.16;98.89
24422;BME280;12600;53.326;-6.298;2023-10-31T01:04:18;98959.75;;;10.97;98.95
24422;BME280;12600;53.326;-6.298;2023-10-31T01:06:48;98993.81;;;11.15;99.00
24422;BME280;12600;53.326;-6.298;2023-10-31T01:09:18;98995.28;;;11.13;99.06
24422;BME280;12600;53.326;-6.298;2023-10-31T01:11:47;98982.41;;;11.13;99.48
24422;BME280;12600;53.326;-6.298;2023-10-31T01:14:16;98989.03;;;11.12;99.23
24422;BME280;12600;53.326;-6.298;2023-10-31T01:16:46;98989.41;;;11.11;99.60
24422;BME280;12600;53.326;-6.298;2023-10-31T01:19:17;98983.50;;;11.09;99.37
24422;BME280;12600;53.326;-6.298;2023-10-31T01:21:46;98979.69;;;10.98;99.55
24422;BME280;12600;53.326;-6.298;2023-10-31T01:24:15;98992.13;;;10.95;100.00
24422;BME280;12600;53.326;-6.298;2023-10-31T01:26:44;98987.38;;;10.92;100.00
24422;BME280;12600;53.326;-6.298;2023-10-31T01:29:14;98990.09;;;10.92;100.00
24422;BME280;12600;53.326;-6.298;2023-10-31T01:31:43;98991.25;;;10.91;100.00
24422;BME280;12600;53.326;-6.298;2023-10-31T01:34:29;98983.50;;;10.93;100.00
24422;BME280;12600;53.326;-6.298;2023-10-31T01:36:59;98990.53;;;10.94;100.00
24422;BME280;12600;53.326;-6.298;2023-10-31T01:39:28;98988.59;;;10.95;100.00
24422;BME280;12600;53.326;-6.298;2023-10-31T01:41:57;98992.13;;;10.95;100.00
24422;BME280;12600;53.326;-6.298;2023-10-31T01:44:27;98984.28;;;10.93;100.00
24422;BME280;12600;53.326;-6.298;2023-10-31T01:46:58;98995.22;;;10.93;100.00
24422;BME280;12600;53.326;-6.298;2023-10-31T01:49:28;98991.69;;;10.93;100.00
24422;BME280;12600;53.326;-6.298;2023-10-31T01:51:58;98997.94;;;10.93;100.00
24422;BME280;12600;53.326;-6.298;2023-10-31T01:54:27;99000.25;;;10.91;100.00
24422;BME280;12600;53.326;-6.298;2023-10-31T01:56:57;98997.50;;;10.91;100.00
24422;BME280;12600;53.326;-6.298;2023-10-31T01:59:27;98987.97;;;10.85;100.00
24422;BME280;12600;53.326;-6.298;2023-10-31T02:01:57;98998.75;;;10.94;100.00
24422;BME280;12600;53.326;-6.298;2023-10-31T02:04:26;99002.34;;;10.98;100.00
24422;BME280;12600;53.326;-6.298;2023-10-31T02:06:57;98997.78;;;11.02;100.00
24422;BME280;12600;53.326;-6.298;2023-10-31T02:09:26;98998.19;;;11.04;100.00
24422;BME280;12600;53.326;-6.298;2023-10-31T02:11:57;98999.00;;;11.05;100.00
24422;BME280;12600;53.326;-6.298;2023-10-31T02:14:27;99001.84;;;11.08;100.00
24422;BME280;12600;53.326;-6.298;2023-10-31T02:16:56;98977.59;;;10.91;100.00
24422;BME280;12600;53.326;-6.298;2023-10-31T02:19:27;98997.06;;;11.05;100.00
24422;BME280;12600;53.326;-6.298;2023-10-31T02:21:57;99006.22;;;11.13;100.00
24422;BME280;12600;53.326;-6.298;2023-10-31T02:24:27;99006.69;;;11.15;100.00
24422;BME280;12600;53.326;-6.298;2023-10-31T02:26:58;99020.00;;;11.16;100.00
24422;BME280;12600;53.326;-6.298;2023-10-31T02:29:27;99017.69;;;11.18;100.00
24422;BME280;12600;53.326;-6.298;2023-10-31T02:31:57;99013.03;;;11.19;100.00
24422;BME280;12600;53.326;-6.298;2023-10-31T02:34:26;99015.81;;;11.23;100.00
24422;BME280;12600;53.326;-6.298;2023-10-31T02:36:57;99006.94;;;11.26;100.00
24422;BME280;12600;53.326;-6.298;2023-10-31T02:39:26;99010.09;;;11.28;100.00
24422;BME280;12600;53.326;-6.298;2023-10-31T02:41:56;99005.34;;;11.25;100.00
24422;BME280;12600;53.326;-6.298;2023-10-31T02:44:25;99011.78;;;11.32;100.00
24422;BME280;12600;53.326;-6.298;2023-10-31T02:46:55;99015.75;;;11.35;100.00
24422;BME280;12600;53.326;-6.298;2023-10-31T02:49:24;99020.97;;;11.40;100.00
24422;BME280;12600;53.326;-6.298;2023-10-31T02:51:54;99015.91;;;11.42;100.00
24422;BME280;12600;53.326;-6.298;2023-10-31T02:54:24;99025.34;;;11.44;100.00
24422;BME280;12600;53.326;-6.298;2023-10-31T02:56:55;99024.72;;;11.51;100.00
24422;BME280;12600;53.326;-6.298;2023-10-31T02:59:24;99024.81;;;11.55;100.00
24422;BME280;12600;53.326;-6.298;2023-10-31T03:01:55;99016.97;;;11.53;100.00
24422;BME280;12600;53.326;-6.298;2023-10-31T03:04:25;99022.44;;;11.53;100.00
24422;BME280;12600;53.326;-6.298;2023-10-31T03:06:54;99028.06;;;11.60;100.00
24422;BME280;12600;53.326;-6.298;2023-10-31T03:09:25;98997.16;;;11.40;100.00
24422;BME280;12600;53.326;-6.298;2023-10-31T03:11:55;99011.41;;;11.49;100.00
24422;BME280;12600;53.326;-6.298;2023-10-31T03:14:24;99030.44;;;11.62;100.00
24422;BME280;12600;53.326;-6.298;2023-10-31T03:16:54;99030.91;;;11.64;100.00
24422;BME280;12600;53.326;-6.298;2023-10-31T03:19:23;99033.72;;;11.67;100.00
24422;BME280;12600;53.326;-6.298;2023-10-31T03:21:53;99032.47;;;11.65;100.00
24422;BME280;12600;53.326;-6.298;2023-10-31T03:24:22;99038.03;;;11.68;100.00
24422;BME280;12600;53.326;-6.298;2023-10-31T03:26:52;99039.53;;;11.66;100.00
24422;BME280;12600;53.326;-6.298;2023-10-31T03:29:22;99039.53;;;11.66;100.00
24422;BME280;12600;53.326;-6.298;2023-10-31T03:31:52;99039.19;;;11.67;100.00
24422;BME280;12600;53.326;-6.298;2023-10-31T03:34:21;99044.66;;;11.67;100.00
24422;BME280;12600;53.326;-6.298;2023-10-31T03:36:52;99031.59;;;11.61;100.00
24422;BME280;12600;53.326;-6.298;2023-10-31T03:39:22;99044.66;;;11.67;100.00
24422;BME280;12600;53.326;-6.298;2023-10-31T03:41:52;99040.31;;;11.66;100.00
24422;BME280;12600;53.326;-6.298;2023-10-31T03:44:24;99045.81;;;11.66;100.00
24422;BME280;12600;53.326;-6.298;2023-10-31T03:46:54;99043.78;;;11.63;100.00
24422;BME280;12600;53.326;-6.298;2023-10-31T03:49:23;99046.84;;;11.62;100.00
24422;BME280;12600;53.326;-6.298;2023-10-31T03:51:52;99038.84;;;11.53;100.00
24422;BME280;12600;53.326;-6.298;2023-10-31T03:54:22;99039.72;;;11.57;100.00
24422;BME280;12600;53.326;-6.298;2023-10-31T03:56:53;99034.09;;;11.50;100.00
24422;BME280;12600;53.326;-6.298;2023-10-31T03:59:22;99035.66;;;11.51;100.00
24422;BME280;12600;53.326;-6.298;2023-10-31T04:01:51;99043.16;;;11.54;100.00
24422;BME280;12600;53.326;-6.298;2023-10-31T04:04:21;99047.03;;;11.53;100.00
24422;BME280;12600;53.326;-6.298;2023-10-31T04:06:50;99048.19;;;11.52;100.00
24422;BME280;12600;53.326;-6.298;2023-10-31T04:09:19;99046.44;;;11.44;100.00
24422;BME280;12600;53.326;-6.298;2023-10-31T04:11:48;99060.09;;;11.44;100.00
24422;BME280;12600;53.326;-6.298;2023-10-31T04:14:19;99064.00;;;11.43;100.00
24422;BME280;12600;53.326;-6.298;2023-10-31T04:16:48;99068.31;;;11.44;100.00
24422;BME280;12600;53.326;-6.298;2023-10-31T04:19:17;99059.56;;;11.38;100.00
24422;BME280;12600;53.326;-6.298;2023-10-31T04:21:47;99065.03;;;11.38;100.00
24422;BME280;12600;53.326;-6.298;2023-10-31T04:24:16;99071.66;;;11.37;100.00
24422;BME280;12600;53.326;-6.298;2023-10-31T04:26:45;99068.94;;;11.37;100.00
24422;BME280;12600;53.326;-6.298;2023-10-31T04:29:14;99084.28;;;11.42;100.00
24422;BME280;12600;53.326;-6.298;2023-10-31T04:31:45;99083.13;;;11.43;100.00
24422;BME280;12600;53.326;-6.298;2023-10-31T04:34:14;99080.41;;;11.43;100.00
24422;BME280;12600;53.326;-6.298;2023-10-31T04:36:43;99087.88;;;11.46;100.00
24422;BME280;12600;53.326;-6.298;2023-10-31T04:39:12;99082.34;;;11.42;100.00
24422;BME280;12600;53.326;-6.298;2023-10-31T04:41:42;99088.69;;;11.46;100.00
24422;BME280;12600;53.326;-6.298;2023-10-31T04:44:11;99096.63;;;11.52;100.00
24422;BME280;12600;53.326;-6.298;2023-10-31T04:46:40;99082.09;;;11.47;100.00
24422;BME280;12600;53.326;-6.298;2023-10-31T04:49:11;99101.38;;;11.55;100.00
24422;BME280;12600;53.326;-6.298;2023-10-31T04:51:41;99095.59;;;11.56;100.00
24422;BME280;12600;53.326;-6.298;2023-10-31T04:54:10;99103.16;;;11.63;100.00
24422;BME280;12600;53.326;-6.298;2023-10-31T04:56:39;99105.09;;;11.62;100.00
24422;BME280;12600;53.326;-6.298;2023-10-31T04:59:08;99096.09;;;11.62;100.00
24422;BME280;12600;53.326;-6.298;2023-10-31T05:01:38;99101.38;;;11.70;100.00
24422;BME280;12600;53.326;-6.298;2023-10-31T05:04:07;99103.31;;;11.70;100.00
24422;BME280;12600;53.326;-6.298;2023-10-31T05:06:41;99100.94;;;11.68;100.00
24422;BME280;12600;53.326;-6.298;2023-10-31T05:09:10;99098.50;;;11.63;100.00
24422;BME280;12600;53.326;-6.298;2023-10-31T05:11:40;99107.94;;;11.66;100.00
24422;BME280;12600;53.326;-6.298;2023-10-31T05:14:09;99110.31;;;11.67;100.00
24422;BME280;12600;53.326;-6.298;2023-10-31T05:16:42;99098.75;;;11.58;100.00
24422;BME280;12600;53.326;-6.298;2023-10-31T05:19:12;99115.59;;;11.60;100.00
24422;BME280;12600;53.326;-6.298;2023-10-31T05:21:45;99114.44;;;11.61;100.00
24422;BME280;12600;53.326;-6.298;2023-10-31T05:24:15;99113.28;;;11.62;100.00
24422;BME280;12600;53.326;-6.298;2023-10-31T05:26:44;99108.63;;;11.63;100.00
24422;BME280;12600;53.326;-6.298;2023-10-31T05:29:13;99102.22;;;11.55;100.00
24422;BME280;12600;53.326;-6.298;2023-10-31T05:31:43;99113.28;;;11.62;100.00
24422;BME280;12600;53.326;-6.298;2023-10-31T05:34:12;99123.56;;;11.65;100.00
24422;BME280;12600;53.326;-6.298;2023-10-31T05:36:41;99121.97;;;11.64;100.00
24422;BME280;12600;53.326;-6.298;2023-10-31T05:39:12;99129.38;;;11.64;100.00
24422;BME280;12600;53.326;-6.298;2023-10-31T05:41:42;99131.75;;;11.65;100.00
24422;BME280;12600;53.326;-6.298;2023-10-31T05:44:12;99124.25;;;11.62;100.00
24422;BME280;12600;53.326;-6.298;2023-10-31T05:46:41;99125.84;;;11.63;100.00
24422;BME280;12600;53.326;-6.298;2023-10-31T05:49:10;99119.56;;;11.63;100.00
24422;BME280;12600;53.326;-6.298;2023-10-31T05:51:40;99117.28;;;11.65;100.00
24422;BME280;12600;53.326;-6.298;2023-10-31T05:54:09;99129.28;;;11.76;100.00
24422;BME280;12600;53.326;-6.298;2023-10-31T05:56:40;99137.13;;;11.77;100.00
24422;BME280;12600;53.326;-6.298;2023-10-31T05:59:10;99139.84;;;11.77;100.00
24422;BME280;12600;53.326;-6.298;2023-10-31T06:01:38;99148.53;;;11.80;100.00
24422;BME280;12600;53.326;-6.298;2023-10-31T06:04:07;99143.38;;;11.78;100.00
24422;BME280;12600;53.326;-6.298;2023-10-31T06:06:38;99149.34;;;11.80;100.00
24422;BME280;12600;53.326;-6.298;2023-10-31T06:09:07;99148.78;;;11.74;100.00
24422;BME280;12600;53.326;-6.298;2023-10-31T06:11:41;99151.53;;;11.74;100.00
24422;BME280;12600;53.326;-6.298;2023-10-31T06:14:11;99169.88;;;11.74;100.00
24422;BME280;12600;53.326;-6.298;2023-10-31T06:16:41;99164.31;;;11.70;100.00
24422;BME280;12600;53.326;-6.298;2023-10-31T06:19:10;99156.63;;;11.76;100.00
24422;BME280;12600;53.326;-6.298;2023-10-31T06:21:40;99166.00;;;11.75;100.00
24422;BME280;12600;53.326;-6.298;2023-10-31T06:24:10;99171.47;;;11.75;100.00
24422;BME280;12600;53.326;-6.298;2023-10-31T06:26:40;99156.63;;;11.60;100.00
24422;BME280;12600;53.326;-6.298;2023-10-31T06:29:09;99177.53;;;11.68;100.00
24422;BME280;12600;53.326;-6.298;2023-10-31T06:31:59;99176.88;;;11.71;100.00
24422;BME280;12600;53.326;-6.298;2023-10-31T06:34:29;99178.78;;;11.71;100.00
24422;BME280;12600;53.326;-6.298;2023-10-31T06:36:58;99180.03;;;11.73;100.00
24422;BME280;12600;53.326;-6.298;2023-10-31T06:39:27;99189.41;;;11.72;100.00
24422;BME280;12600;53.326;-6.298;2023-10-31T06:41:58;99176.94;;;11.75;100.00
24422;BME280;12600;53.326;-6.298;2023-10-31T06:44:27;99179.13;;;11.69;100.00
24422;BME280;12600;53.326;-6.298;2023-10-31T06:46:57;99180.72;;;11.70;100.00
24422;BME280;12600;53.326;-6.298;2023-10-31T06:49:27;99185.22;;;11.78;100.00
24422;BME280;12600;53.326;-6.298;2023-10-31T06:51:56;99177.66;;;11.72;100.00
24422;BME280;12600;53.326;-6.298;2023-10-31T06:54:26;99184.59;;;11.69;100.00
24422;BME280;12600;53.326;-6.298;2023-10-31T06:56:55;99192.19;;;11.76;100.00
24422;BME280;12600;53.326;-6.298;2023-10-31T06:59:26;99198.38;;;11.73;100.00
24422;BME280;12600;53.326;-6.298;2023-10-31T07:01:57;99203.06;;;11.72;100.00
24422;BME280;12600;53.326;-6.298;2023-10-31T07:04:26;99190.00;;;11.66;100.00
24422;BME280;12600;53.326;-6.298;2023-10-31T07:06:55;99202.59;;;11.70;100.00
24422;BME280;12600;53.326;-6.298;2023-10-31T07:09:26;99209.94;;;11.66;100.00
24422;BME280;12600;53.326;-6.298;2023-10-31T07:11:55;99206.41;;;11.66;100.00
24422;BME280;12600;53.326;-6.298;2023-10-31T07:14:26;99214.97;;;11.64;100.00
24422;BME280;12600;53.326;-6.298;2023-10-31T07:16:56;99220.44;;;11.64;100.00
24422;BME280;12600;53.326;-6.298;2023-10-31T07:19:25;99211.34;;;11.60;100.00
24422;BME280;12600;53.326;-6.298;2023-10-31T07:21:54;99218.16;;;11.66;100.00
24422;BME280;12600;53.326;-6.298;2023-10-31T07:24:24;99229.44;;;11.65;100.00
24422;BME280;12600;53.326;-6.298;2023-10-31T07:26:54;99226.78;;;11.68;100.00
24422;BME280;12600;53.326;-6.298;2023-10-31T07:29:23;99229.09;;;11.66;100.00
24422;BME280;12600;53.326;-6.298;2023-10-31T07:31:54;99236.88;;;11.64;100.00
24422;BME280;12600;53.326;-6.298;2023-10-31T07:34:23;99225.47;;;11.62;100.00
24422;BME280;12600;53.326;-6.298;2023-10-31T07:36:52;99240.47;;;11.68;100.00
24422;BME280;12600;53.326;-6.298;2023-10-31T07:39:22;99242.78;;;11.66;100.00
24422;BME280;12600;53.326;-6.298;2023-10-31T07:41:51;99240.47;;;11.68;100.00
24422;BME280;12600;53.326;-6.298;2023-10-31T07:44:22;99247.44;;;11.66;100.00
24422;BME280;12600;53.326;-6.298;2023-10-31T07:46:51;99250.88;;;11.63;100.00
24422;BME280;12600;53.326;-6.298;2023-10-31T07:49:22;99250.97;;;11.66;100.00
24422;BME280;12600;53.326;-6.298;2023-10-31T07:51:51;99258.28;;;11.62;100.00
24422;BME280;12600;53.326;-6.298;2023-10-31T07:54:21;99247.00;;;11.64;100.00
24422;BME280;12600;53.326;-6.298;2023-10-31T07:56:50;99262.34;;;11.68;100.00
24422;BME280;12600;53.326;-6.298;2023-10-31T07:59:19;99270.47;;;11.65;100.00
24422;BME280;12600;53.326;-6.298;2023-10-31T08:01:48;99270.13;;;11.66;100.00
24422;BME280;12600;53.326;-6.298;2023-10-31T08:04:21;99281.50;;;11.68;100.00
24422;BME280;12600;53.326;-6.298;2023-10-31T08:06:50;99279.50;;;11.65;100.00
24422;BME280;12600;53.326;-6.298;2023-10-31T08:09:20;99279.13;;;11.67;100.00
24422;BME280;12600;53.326;-6.298;2023-10-31T08:11:49;99292.47;;;11.68;100.00
24422;BME280;12600;53.326;-6.298;2023-10-31T08:14:18;99293.25;;;11.69;100.00
24422;BME280;12600;53.326;-6.298;2023-10-31T08:16:48;99293.97;;;11.66;100.00
24422;BME280;12600;53.326;-6.298;2023-10-31T08:19:18;99288.50;;;11.66;100.00
24422;BME280;12600;53.326;-6.298;2023-10-31T08:21:48;99297.94;;;11.68;100.00
24422;BME280;12600;53.326;-6.298;2023-10-31T08:24:17;99285.31;;;11.64;100.00
24422;BME280;12600;53.326;-6.298;2023-10-31T08:26:47;99289.72;;;11.68;100.00
24422;BME280;12600;53.326;-6.298;2023-10-31T08:29:16;99290.16;;;11.70;100.00
24422;BME280;12600;53.326;-6.298;2023-10-31T08:31:45;99298.84;;;11.72;100.00
24422;BME280;12600;53.326;-6.298;2023-10-31T08:34:15;99312.03;;;11.70;100.00
24422;BME280;12600;53.326;-6.298;2023-10-31T08:36:44;99315.25;;;11.72;100.00
24422;BME280;12600;53.326;-6.298;2023-10-31T08:39:15;99327.78;;;11.73;100.00
24422;BME280;12600;53.326;-6.298;2023-10-31T08:41:51;99332.34;;;11.69;100.00
24422;BME280;12600;53.326;-6.298;2023-10-31T08:44:21;99336.66;;;11.70;100.00
24422;BME280;12600;53.326;-6.298;2023-10-31T08:46:50;99342.13;;;11.70;100.00
24422;BME280;12600;53.326;-6.298;2023-10-31T08:49:19;99333.94;;;11.70;100.00
24422;BME280;12600;53.326;-6.298;2023-10-31T08:51:49;99338.09;;;11.64;100.00
24422;BME280;12600;53.326;-6.298;2023-10-31T08:54:19;99343.75;;;11.71;100.00
24422;BME280;12600;53.326;-6.298;2023-10-31T08:56:49;99333.50;;;11.68;100.00
24422;BME280;12600;53.326;-6.298;2023-10-31T08:59:18;99322.66;;;11.72;100.00
24422;BME280;12600;53.326;-6.298;2023-10-31T09:01:47;99337.56;;;11.74;100.00
24422;BME280;12600;53.326;-6.298;2023-10-31T09:04:16;99341.09;;;11.75;100.00
24422;BME280;12600;53.326;-6.298;2023-10-31T09:06:46;99335.63;;;11.75;100.00
24422;BME280;12600;53.326;-6.298;2023-10-31T09:09:15;99341.81;;;11.72;100.00
24422;BME280;12600;53.326;-6.298;2023-10-31T09:11:46;99338.00;;;11.76;100.00
24422;BME280;12600;53.326;-6.298;2023-10-31T09:14:15;99343.94;;;11.78;100.00
24422;BME280;12600;53.326;-6.298;2023-10-31T09:16:44;99336.44;;;11.75;100.00
24422;BME280;12600;53.326;-6.298;2023-10-31T09:19:14;99339.03;;;11.84;100.00
24422;BME280;12600;53.326;-6.298;2023-10-31T09:21:43;99332.88;;;11.87;100.00
24422;BME280;12600;53.326;-6.298;2023-10-31T09:24:12;99337.31;;;12.08;100.00
24422;BME280;12600;53.326;-6.298;2023-10-31T09:26:42;99330.44;;;12.14;100.00
24422;BME280;12600;53.326;-6.298;2023-10-31T09:29:13;99325.66;;;12.26;100.00
24422;BME280;12600;53.326;-6.298;2023-10-31T09:31:54;99338.16;;;12.40;100.00
24422;BME280;12600;53.326;-6.298;2023-10-31T09:34:24;99347.78;;;12.49;100.00
24422;BME280;12600;53.326;-6.298;2023-10-31T09:36:53;99347.94;;;12.56;100.00
24422;BME280;12600;53.326;-6.298;2023-10-31T09:39:22;99356.28;;;12.60;99.74
24422;BME280;12600;53.326;-6.298;2023-10-31T09:41:51;99361.22;;;12.70;100.00
24422;BME280;12600;53.326;-6.298;2023-10-31T09:44:23;99327.00;;;12.64;100.00
24422;BME280;12600;53.326;-6.298;2023-10-31T09:46:52;99345.44;;;12.83;99.86
24422;BME280;12600;53.326;-6.298;2023-10-31T09:49:23;99340.50;;;12.73;98.97
24422;BME280;12600;53.326;-6.298;2023-10-31T09:51:53;99346.78;;;12.73;99.38
24422;BME280;12600;53.326;-6.298;2023-10-31T09:54:23;99340.81;;;12.68;99.90
24422;BME280;12600;53.326;-6.298;2023-10-31T09:56:52;99353.97;;;12.62;99.22
24422;BME280;12600;53.326;-6.298;2023-10-31T09:59:23;99346.72;;;12.54;98.21
24422;BME280;12600;53.326;-6.298;2023-10-31T10:01:52;99351.31;;;12.50;98.44
24422;BME280;12600;53.326;-6.298;2023-10-31T10:04:21;99349.34;;;12.50;99.26
24422;BME280;12600;53.326;-6.298;2023-10-31T10:06:52;99350.25;;;12.54;99.59
24422;BME280;12600;53.326;-6.298;2023-10-31T10:09:27;99360.50;;;12.57;99.82
24422;BME280;12600;53.326;-6.298;2023-10-31T10:11:59;99352.91;;;12.51;98.21
24422;BME280;12600;53.326;-6.298;2023-10-31T10:14:30;99331.44;;;12.37;98.65
24422;BME280;12600;53.326;-6.298;2023-10-31T10:17:01;99365.91;;;12.54;99.16
24422;BME280;12600;53.326;-6.298;2023-10-31T10:19:30;99359.88;;;12.48;97.94
24422;BME280;12600;53.326;-6.298;2023-10-31T10:22:00;99370.03;;;12.48;97.82
24422;BME280;12600;53.326;-6.298;2023-10-31T10:24:29;99372.59;;;12.41;96.87
24422;BME280;12600;53.326;-6.298;2023-10-31T10:26:58;99375.09;;;12.46;97.61
24422;BME280;12600;53.326;-6.298;2023-10-31T10:29:28;99368.47;;;12.47;97.81
24422;BME280;12600;53.326;-6.298;2023-10-31T10:31:58;99364.94;;;12.46;97.39
24422;BME280;12600;53.326;-6.298;2023-10-31T10:34:28;99344.59;;;12.31;98.17
24422;BME280;12600;53.326;-6.298;2023-10-31T10:36:57;99363.84;;;12.51;98.29
24422;BME280;12600;53.326;-6.298;2023-10-31T10:39:28;99368.22;;;12.52;97.50
24422;BME280;12600;53.326;-6.298;2023-10-31T10:42:01;99364.13;;;12.46;95.98
24422;BME280;12600;53.326;-6.298;2023-10-31T10:44:35;99368.22;;;12.52;97.16
24422;BME280;12600;53.326;-6.298;2023-10-31T10:47:07;99368.91;;;12.65;97.57
24422;BME280;12600;53.326;-6.298;2023-10-31T10:49:37;99378.06;;;13.04;96.31
24422;BME280;12600;53.326;-6.298;2023-10-31T10:52:22;99383.59;;;13.97;97.15
24422;BME280;12600;53.326;-6.298;2023-10-31T10:54:56;99375.22;;;15.01;97.64
24422;BME280;12600;53.326;-6.298;2023-10-31T10:57:36;99389.66;;;16.11;95.63
24422;BME280;12600;53.326;-6.298;2023-10-31T11:00:07;99387.75;;;17.00;89.35
24422;BME280;12600;53.326;-6.298;2023-10-31T11:02:41;99392.19;;;17.77;89.16
24422;BME280;12600;53.326;-6.298;2023-10-31T11:05:13;99376.97;;;18.51;89.90
24422;BME280;12600;53.326;-6.298;2023-10-31T11:07:43;99380.16;;;19.14;90.53
24422;BME280;12600;53.326;-6.298;2023-10-31T11:10:14;99382.81;;;19.74;85.98
24422;BME280;12600;53.326;-6.298;2023-10-31T11:12:44;99378.78;;;19.86;75.65
24422;BME280;12600;53.326;-6.298;2023-10-31T11:15:16;99360.97;;;19.87;75.29
24422;BME280;12600;53.326;-6.298;2023-10-31T11:17:48;99380.56;;;20.25;76.07
24422;BME280;12600;53.326;-6.298;2023-10-31T11:20:19;99386.66;;;20.68;80.40
24422;BME280;12600;53.326;-6.298;2023-10-31T11:22:55;99400.97;;;21.11;78.61
24422;BME280;12600;53.326;-6.298;2023-10-31T11:25:25;99395.50;;;21.45;78.03
24422;BME280;12600;53.326;-6.298;2023-10-31T11:28:12;99389.78;;;21.60;74.69
24422;BME280;12600;53.326;-6.298;2023-10-31T11:30:42;99399.97;;;21.36;75.32
24422;BME280;12600;53.326;-6.298;2023-10-31T11:33:15;99386.63;;;20.72;74.83
24422;BME280;12600;53.326;-6.298;2023-10-31T11:35:50;99391.66;;;20.25;71.71
24422;BME280;12600;53.326;-6.298;2023-10-31T11:38:31;99386.47;;;20.37;73.49
24422;BME280;12600;53.326;-6.298;2023-10-31T11:41:03;99386.25;;;20.70;67.79
24422;BME280;12600;53.326;-6.298;2023-10-31T11:43:53;99385.41;;;21.17;70.00
24422;BME280;12600;53.326;-6.298;2023-10-31T11:46:24;99386.78;;;21.02;65.03
24422;BME280;12600;53.326;-6.298;2023-10-31T11:48:56;99378.72;;;20.66;63.72
24422;BME280;12600;53.326;-6.298;2023-10-31T11:51:26;99386.88;;;20.29;66.86
24422;BME280;12600;53.326;-6.298;2023-10-31T11:53:56;99373.75;;;19.60;62.14
24422;BME280;12600;53.326;-6.298;2023-10-31T11:56:26;99384.16;;;18.95;62.34
24422;BME280;12600;53.326;-6.298;2023-10-31T11:58:57;99391.16;;;18.35;64.79
24422;BME280;12600;53.326;-6.298;2023-10-31T12:01:27;99388.66;;;17.84;66.00
24422;BME280;12600;53.326;-6.298;2023-10-31T12:03:58;99384.47;;;17.39;65.85
24422;BME280;12600;53.326;-6.298;2023-10-31T12:06:28;99381.88;;;17.01;66.87
24422;BME280;12600;53.326;-6.298;2023-10-31T12:09:00;99383.09;;;16.63;67.45
24422;BME280;12600;53.326;-6.298;2023-10-31T12:11:30;99373.38;;;16.36;67.35
24422;BME280;12600;53.326;-6.298;2023-10-31T12:14:01;99365.28;;;16.13;68.34
24422;BME280;12600;53.326;-6.298;2023-10-31T12:16:34;99376.94;;;15.99;68.68
24422;BME280;12600;53.326;-6.298;2023-10-31T12:19:05;99366.59;;;15.89;69.15
24422;BME280;12600;53.326;-6.298;2023-10-31T12:21:40;99361.41;;;15.80;68.99
24422;BME280;12600;53.326;-6.298;2023-10-31T12:24:13;99359.34;;;15.74;69.64
24422;BME280;12600;53.326;-6.298;2023-10-31T12:26:43;99354.53;;;15.67;70.09
24422;BME280;12600;53.326;-6.298;2023-10-31T12:29:14;99357.00;;;15.76;70.89
24422;BME280;12600;53.326;-6.298;2023-10-31T12:31:45;99348.25;;;15.66;71.35
24422;BME280;12600;53.326;-6.298;2023-10-31T12:34:18;99358.59;;;15.77;72.70
24422;BME280;12600;53.326;-6.298;2023-10-31T12:36:49;99355.41;;;15.75;72.82
24422;BME280;12600;53.326;-6.298;2023-10-31T12:39:23;99361.25;;;15.70;73.60
24422;BME280;12600;53.326;-6.298;2023-10-31T12:41:54;99356.59;;;15.74;74.29
24422;BME280;12600;53.326;-6.298;2023-10-31T12:44:26;99361.75;;;15.79;74.12
24422;BME280;12600;53.326;-6.298;2023-10-31T12:46:58;99365.00;;;15.88;74.55
24422;BME280;12600;53.326;-6.298;2023-10-31T12:49:29;99353.66;;;15.93;74.58
24422;BME280;12600;53.326;-6.298;2023-10-31T12:52:02;99343.44;;;15.93;73.62
24422;BME280;12600;53.326;-6.298;2023-10-31T12:54:34;99354.94;;;16.03;74.12
24422;BME280;12600;53.326;-6.298;2023-10-31T12:57:06;99359.34;;;16.11;74.70
24422;BME280;12600;53.326;-6.298;2023-10-31T12:59:39;99361.06;;;16.22;74.95